LFRJ

Landivisiau Air Base

Airport
ICAO code
LFRJ
Summary
ICAO Region
EUR
ICAO Territory
Location

, Bretagne

Serving
Landivisiau
Elevation
348 ft
Coordinates
48° 31' 49" N , 4° 9' 6" W
Metar
Observation
LFRJ 030100Z AUTO 04010KT 010V070 9999 FEW024/// BKN030/// BKN035/// ///TCU 06/04 Q1019
Station
Landivisiau
Date/Time
2022-12-03 01:00:00
Wind direction
40°
Wind speed
10 kts
Lowest cloud amount
few clouds
Temperature
6°C
Dew point
4°C
Humidity
86%
QNH
1019 hPa
Weather condition
n/a

Runways

Designator Length Width Surface Rops
8/26 2700 45 CON No/No

Airport map

Aerial View

SKYbrary Partners:

Safety knowledge contributed by: